Página principal
METAR-TAF:

METAR-TAF

Aeroportos :

Nevis, Antígua e Barbuda

latitude: 17-12N, longitude: 062-35W, altura: 17 m

Observação actual do tempo

O boletim foi feito há 22 minutos, às 15:00 UTC
Vento 13 kt de es-sudeste
Temperatura 27°C
Humidade 66%
Pressão 1018 hPa
Visibilidade 10 km ou mais
Nuvens fragmentadasa uma altura de 2000 ft
aguaceiros nas vizinhanças

METAR: TKPN 191500Z 12013KT 9999 VCSH BKN020 27/20 Q1018

Hora: 11:22 (15:22 UTC)

Previsão

O boletim foi feito há 3 horas e 52 minutos, às 11:30 UTC
Previsão válida de 19 às 12 UTC a 20 às 12 UTC
Vento 8 kt de este
Visibilidade 10 km ou mais
Nuvens dispersasa uma altura de 1900 ft
Probabilidade 30% :
Temporariamente
de 19 às 12 UTC a 19 às 16 UTC
aguaceiros de chuva

TAF: TKPN 191130Z 1912/2012 08008KT 9999 SCT019 PROB30 TEMPO 1912/1916 SHRA

Observações e previsões do tempo de mais de 4000 aeroportos (mensagens METAR e TAF).

As estações disponíveis são os pontos amarelos e vermelhos sobre o mapa.

Mova o rato sobre o mapa para ver o nome da estação.

Depois clique no ponto para visualizar as observações e previsões meteorológicas.

Para alterar o mapa : clique nos botões verdes com uma cruz preta para aumentar o zoom; no botão verde com uma pitada de zoom; ou nas setas verdes para mapas adjacentes.


METAR-TAF: